createdAt,value
2022-11-11T00:01:07.394Z,8.62
2022-11-11T00:03:33.963Z,8.65
2022-11-11T00:06:05.145Z,8.56
2022-11-11T00:08:32.189Z,8.48
2022-11-11T00:11:06.580Z,8.48
2022-11-11T00:13:34.426Z,8.66
2022-11-11T00:16:12.368Z,8.70
2022-11-11T00:18:58.748Z,8.16
2022-11-11T00:21:44.023Z,8.09
2022-11-11T00:24:38.434Z,7.90
2022-11-11T00:27:07.966Z,7.51
2022-11-11T00:29:34.568Z,7.66
2022-11-11T00:32:19.745Z,7.58
2022-11-11T00:35:06.247Z,7.22
2022-11-11T00:37:33.807Z,7.39
2022-11-11T00:40:00.398Z,7.25
2022-11-11T00:42:27.703Z,7.10
2022-11-11T00:44:54.838Z,6.79
2022-11-11T00:47:39.893Z,6.55
2022-11-11T00:50:31.998Z,6.37
2022-11-11T00:52:58.556Z,6.37
2022-11-11T00:55:25.145Z,6.22
2022-11-11T00:57:51.692Z,6.24
2022-11-11T01:00:18.642Z,6.16
2022-11-11T01:02:45.288Z,6.07
2022-11-11T01:05:11.832Z,5.90
2022-11-11T01:07:38.376Z,5.94
2022-11-11T01:10:05.469Z,6.23
2022-11-11T01:12:32.048Z,6.35
2022-11-11T01:14:58.575Z,6.49
2022-11-11T01:17:25.157Z,6.80
2022-11-11T01:19:51.737Z,6.55
2022-11-11T01:22:18.244Z,6.48
2022-11-11T01:24:46.327Z,6.39
2022-11-11T01:27:12.975Z,6.35
2022-11-11T01:29:40.101Z,6.48
2022-11-11T01:32:06.704Z,6.24
2022-11-11T01:34:33.272Z,6.62
2022-11-11T01:36:59.869Z,6.57
2022-11-11T01:39:26.415Z,6.40
2022-11-11T01:41:53.860Z,6.30
2022-11-11T01:44:47.476Z,6.10
2022-11-11T01:47:15.446Z,6.29
2022-11-11T01:49:59.843Z,6.15
2022-11-11T01:52:34.854Z,6.08
2022-11-11T01:55:17.554Z,6.05
2022-11-11T01:57:50.685Z,5.71
2022-11-11T02:00:19.574Z,6.02
2022-11-11T02:02:48.946Z,5.90
2022-11-11T02:05:37.078Z,5.64
2022-11-11T02:08:32.409Z,5.81
2022-11-11T02:11:14.252Z,5.85
2022-11-11T02:14:02.099Z,6.01
2022-11-11T02:16:29.009Z,6.13
2022-11-11T02:18:56.147Z,6.10
2022-11-11T02:21:42.238Z,6.01
2022-11-11T02:24:12.618Z,5.89
2022-11-11T02:26:40.378Z,5.86
2022-11-11T02:29:14.656Z,5.97
2022-11-11T02:31:41.203Z,5.85
2022-11-11T02:34:07.834Z,5.97
2022-11-11T02:36:34.737Z,5.72
2022-11-11T02:39:01.558Z,5.81
2022-11-11T02:41:46.624Z,6.00
2022-11-11T02:44:13.123Z,5.84
2022-11-11T02:46:39.718Z,5.97
2022-11-11T02:49:06.350Z,6.21
2022-11-11T02:51:32.950Z,6.10
2022-11-11T02:53:59.569Z,6.07
2022-11-11T02:56:44.679Z,6.12
2022-11-11T02:59:11.531Z,5.74
2022-11-11T03:01:38.218Z,5.86
2022-11-11T03:04:05.414Z,5.77
2022-11-11T03:06:32.192Z,5.92
2022-11-11T03:08:59.038Z,6.11
2022-11-11T03:11:28.231Z,6.29
2022-11-11T03:13:55.481Z,6.71
2022-11-11T03:16:40.718Z,6.97
2022-11-11T03:19:07.352Z,7.43
2022-11-11T03:24:20.407Z,7.43
2022-11-11T03:26:46.897Z,7.33
2022-11-11T03:29:13.445Z,6.75
2022-11-11T03:31:39.981Z,6.13
2022-11-11T03:34:18.558Z,5.82
2022-11-11T03:37:04.466Z,5.76
2022-11-11T03:39:31.013Z,5.58
2022-11-11T03:41:58.064Z,5.30
2022-11-11T03:44:25.278Z,5.22
2022-11-11T03:46:51.769Z,5.39
2022-11-11T03:49:18.291Z,5.39
2022-11-11T03:51:44.798Z,5.42
2022-11-11T03:54:11.482Z,5.43
2022-11-11T03:56:37.943Z,5.39
2022-11-11T03:59:04.440Z,5.43
2022-11-11T04:01:49.617Z,5.26
2022-11-11T04:04:34.479Z,5.22
2022-11-11T04:07:19.928Z,5.19
2022-11-11T04:10:04.597Z,5.02
2022-11-11T04:12:53.219Z,5.22
2022-11-11T04:15:38.391Z,5.08
2022-11-11T04:18:04.900Z,5.09
2022-11-11T04:20:49.836Z,4.89
2022-11-11T04:23:16.350Z,4.82
2022-11-11T04:25:53.536Z,4.72
2022-11-11T04:28:38.637Z,4.92
2022-11-11T04:31:05.125Z,5.08
2022-11-11T04:33:31.671Z,5.05
2022-11-11T04:35:58.147Z,5.13
2022-11-11T04:38:43.079Z,5.16
2022-11-11T04:41:11.190Z,4.96
2022-11-11T04:43:57.621Z,5.04
2022-11-11T04:46:24.097Z,4.91
2022-11-11T04:48:50.547Z,4.89
2022-11-11T04:51:17.053Z,4.91
2022-11-11T04:53:43.503Z,4.76
2022-11-11T04:56:28.503Z,4.97
2022-11-11T04:59:15.087Z,5.09
2022-11-11T05:02:00.703Z,5.05
2022-11-11T05:04:27.473Z,5.12
2022-11-11T05:07:12.598Z,5.08
2022-11-11T05:09:39.187Z,5.06
2022-11-11T05:12:05.931Z,5.10
2022-11-11T05:14:50.863Z,5.19
2022-11-11T05:17:35.682Z,5.08
2022-11-11T05:20:20.324Z,4.97
2022-11-11T05:22:46.811Z,4.98
2022-11-11T05:25:25.402Z,4.85
2022-11-11T05:27:53.329Z,4.83
2022-11-11T05:30:21.228Z,4.92
2022-11-11T05:32:47.796Z,4.81
2022-11-11T05:35:15.511Z,4.77
2022-11-11T05:37:42.683Z,4.71
2022-11-11T05:40:10.374Z,4.73
2022-11-11T05:42:48.174Z,4.63
2022-11-11T05:45:17.363Z,4.61
2022-11-11T05:47:43.796Z,4.68
2022-11-11T05:50:10.269Z,4.69
2022-11-11T05:52:36.748Z,4.98
2022-11-11T05:55:03.340Z,4.68
2022-11-11T05:57:29.808Z,4.93
2022-11-11T05:59:58.929Z,4.84
2022-11-11T06:02:25.423Z,5.00
2022-11-11T06:04:51.959Z,4.95
2022-11-11T06:07:18.502Z,4.71
2022-11-11T06:09:45.014Z,4.95
2022-11-11T06:12:11.505Z,4.79
2022-11-11T06:14:37.973Z,4.74
2022-11-11T06:17:04.540Z,4.80
2022-11-11T06:19:31.019Z,4.92
2022-11-11T06:21:57.525Z,5.05
2022-11-11T06:24:26.534Z,5.06
2022-11-11T06:26:54.084Z,5.05
2022-11-11T06:29:20.547Z,5.21
2022-11-11T06:31:47.049Z,5.27
2022-11-11T06:34:13.805Z,5.44
2022-11-11T06:36:40.401Z,5.33
2022-11-11T06:39:06.949Z,5.45
2022-11-11T06:41:33.420Z,5.36
2022-11-11T06:43:59.936Z,5.52
2022-11-11T06:46:27.201Z,5.29
2022-11-11T06:48:53.741Z,5.29
2022-11-11T06:51:20.258Z,5.42
2022-11-11T06:53:46.783Z,5.47
2022-11-11T06:56:13.304Z,5.67
2022-11-11T06:58:40.302Z,5.74
2022-11-11T07:01:08.472Z,5.88
2022-11-11T07:03:36.111Z,5.83
2022-11-11T07:06:04.168Z,5.98
2022-11-11T07:08:31.265Z,6.18
2022-11-11T07:10:57.790Z,6.29
2022-11-11T07:13:24.743Z,6.06
2022-11-11T07:15:51.286Z,6.00
2022-11-11T07:18:17.820Z,6.34
2022-11-11T07:20:44.312Z,6.25
2022-11-11T07:23:10.921Z,6.36
2022-11-11T07:25:37.476Z,6.24
2022-11-11T07:28:04.072Z,6.24
2022-11-11T07:30:30.650Z,6.35
2022-11-11T07:32:57.120Z,6.58
2022-11-11T07:35:23.786Z,6.67
2022-11-11T07:37:50.895Z,6.69
2022-11-11T07:40:19.004Z,6.45
2022-11-11T07:42:45.722Z,6.71
2022-11-11T07:45:13.280Z,6.77
2022-11-11T07:47:42.031Z,6.70
2022-11-11T07:50:08.884Z,6.79
2022-11-11T07:52:37.385Z,6.89
2022-11-11T07:55:05.848Z,6.96
2022-11-11T07:57:32.535Z,6.93
2022-11-11T07:59:59.371Z,7.09
2022-11-11T08:02:25.984Z,6.96
2022-11-11T08:04:55.791Z,7.03
2022-11-11T08:07:24.133Z,7.17
2022-11-11T08:09:51.313Z,7.28
2022-11-11T08:12:36.778Z,7.20
2022-11-11T08:15:06.904Z,7.28
2022-11-11T08:17:39.635Z,7.40
2022-11-11T08:20:09.319Z,7.35
2022-11-11T08:22:39.710Z,7.45
2022-11-11T08:25:14.171Z,7.43
2022-11-11T08:27:42.530Z,7.25
2022-11-11T08:30:09.833Z,7.41
2022-11-11T08:32:36.392Z,7.36
2022-11-11T08:35:03.108Z,7.51
2022-11-11T08:37:29.741Z,7.57
2022-11-11T08:39:57.340Z,7.58
2022-11-11T08:42:24.199Z,7.56
2022-11-11T08:44:51.722Z,7.49
2022-11-11T08:47:20.559Z,7.47
2022-11-11T08:49:49.307Z,7.34
2022-11-11T08:52:16.348Z,7.41
2022-11-11T08:54:42.957Z,7.75
2022-11-11T08:57:09.575Z,7.90
2022-11-11T08:59:36.038Z,7.76
2022-11-11T09:02:02.566Z,7.88
2022-11-11T09:04:46.360Z,8.01
2022-11-11T09:07:14.248Z,8.04
2022-11-11T09:09:41.391Z,8.22
2022-11-11T09:12:07.911Z,8.45
2022-11-11T09:14:34.395Z,8.58
2022-11-11T09:17:00.964Z,9.12
2022-11-11T09:19:27.527Z,9.04
2022-11-11T09:21:54.192Z,9.41
2022-11-11T09:24:20.764Z,9.26
2022-11-11T09:26:49.313Z,9.35
2022-11-11T09:29:16.382Z,9.82
2022-11-11T09:31:45.088Z,9.61
2022-11-11T09:34:12.387Z,9.66
2022-11-11T09:36:38.892Z,9.91
2022-11-11T09:39:05.470Z,10.11
2022-11-11T09:41:57.252Z,10.42
2022-11-11T09:44:44.144Z,10.10
2022-11-11T09:47:26.322Z,10.46
2022-11-11T09:50:01.893Z,10.33
2022-11-11T09:52:36.351Z,10.58
2022-11-11T09:55:15.397Z,10.74
2022-11-11T09:57:48.823Z,10.68
2022-11-11T10:00:23.061Z,10.11
2022-11-11T10:02:53.618Z,10.38
2022-11-11T10:05:23.132Z,10.08
2022-11-11T10:08:17.481Z,9.93
2022-11-11T10:10:51.245Z,9.78
2022-11-11T10:13:30.805Z,9.63
2022-11-11T10:16:02.181Z,9.38
2022-11-11T10:18:56.154Z,9.41
2022-11-11T10:22:10.402Z,9.34
2022-11-11T10:24:50.832Z,9.51
2022-11-11T10:27:21.317Z,9.83
2022-11-11T10:29:49.285Z,9.86
2022-11-11T10:32:33.208Z,9.77
2022-11-11T10:35:18.208Z,10.13
2022-11-11T10:37:45.539Z,10.16
2022-11-11T10:40:21.955Z,10.15
2022-11-11T10:42:48.843Z,10.38
2022-11-11T10:45:30.192Z,10.25
2022-11-11T10:48:01.373Z,10.34
2022-11-11T10:50:41.943Z,10.43
2022-11-11T10:53:22.641Z,10.58
2022-11-11T10:55:58.979Z,10.52
2022-11-11T10:58:25.646Z,10.55
2022-11-11T11:00:54.121Z,10.57
2022-11-11T11:03:59.108Z,10.78
2022-11-11T11:06:31.881Z,10.84
2022-11-11T11:09:09.099Z,10.79
2022-11-11T11:11:41.238Z,10.83
2022-11-11T11:14:23.673Z,10.64
2022-11-11T11:16:55.741Z,10.86
2022-11-11T11:19:27.125Z,10.76
2022-11-11T11:21:57.876Z,10.92
2022-11-11T11:24:34.417Z,10.93
2022-11-11T11:27:03.133Z,11.06
2022-11-11T11:29:34.050Z,10.82
2022-11-11T11:32:17.219Z,10.96
2022-11-11T11:34:48.304Z,11.06
2022-11-11T11:37:15.201Z,10.86
2022-11-11T11:39:42.125Z,11.09
2022-11-11T11:42:10.622Z,11.18
2022-11-11T11:44:38.877Z,11.17
2022-11-11T11:47:18.112Z,11.25
2022-11-11T11:50:06.095Z,11.34
2022-11-11T11:52:59.727Z,11.50
2022-11-11T11:55:31.341Z,11.46
2022-11-11T11:58:42.618Z,11.40
2022-11-11T12:01:13.444Z,11.62
2022-11-11T12:03:58.884Z,11.68
2022-11-11T12:06:40.390Z,11.81
2022-11-11T12:09:06.813Z,12.38
2022-11-11T12:11:38.626Z,12.61
2022-11-11T12:14:20.326Z,12.29
2022-11-11T12:16:54.613Z,12.55
2022-11-11T12:19:41.506Z,12.51
2022-11-11T12:22:25.011Z,12.68
2022-11-11T12:25:29.148Z,12.85
2022-11-11T12:28:02.733Z,12.92
2022-11-11T12:30:33.312Z,12.78
2022-11-11T12:33:27.301Z,12.84
2022-11-11T12:36:15.264Z,12.83
2022-11-11T12:38:58.257Z,12.90
2022-11-11T12:41:33.936Z,13.04
2022-11-11T12:44:12.171Z,13.06
2022-11-11T12:46:56.553Z,13.21
2022-11-11T12:49:29.149Z,12.89
2022-11-11T12:52:18.356Z,12.94
2022-11-11T12:55:03.142Z,13.09
2022-11-11T12:57:51.125Z,13.10
2022-11-11T13:00:23.109Z,12.69
2022-11-11T13:03:01.759Z,12.87
2022-11-11T13:05:40.473Z,12.81
2022-11-11T13:08:12.774Z,12.51
2022-11-11T13:11:14.681Z,12.46
2022-11-11T13:14:44.079Z,12.66
2022-11-11T13:17:14.977Z,12.66
2022-11-11T13:20:16.549Z,12.53
2022-11-11T13:22:43.091Z,12.64
2022-11-11T13:25:17.226Z,12.63
2022-11-11T13:28:07.754Z,12.62
2022-11-11T13:30:52.774Z,12.48
2022-11-11T13:33:24.458Z,12.20
2022-11-11T13:36:01.613Z,12.41
2022-11-11T13:38:38.122Z,12.41
2022-11-11T13:41:07.411Z,12.25
2022-11-11T13:43:33.815Z,12.39
2022-11-11T13:46:02.786Z,12.36
2022-11-11T13:48:34.250Z,12.28
2022-11-11T13:51:25.797Z,12.27
2022-11-11T13:53:53.118Z,12.21
2022-11-11T13:56:30.263Z,11.98
2022-11-11T13:58:58.421Z,11.81
2022-11-11T14:01:36.137Z,11.72
2022-11-11T14:04:08.950Z,12.00
2022-11-11T14:06:35.401Z,12.00
2022-11-11T14:09:02.537Z,11.89
2022-11-11T14:11:37.837Z,11.57
2022-11-11T14:14:32.009Z,11.52
2022-11-11T14:17:05.768Z,11.47
2022-11-11T14:19:33.399Z,11.67
2022-11-11T14:22:02.027Z,11.69
2022-11-11T14:24:40.226Z,11.74
2022-11-11T14:27:09.762Z,11.69
2022-11-11T14:29:58.937Z,11.69
2022-11-11T14:32:28.259Z,11.69
2022-11-11T14:35:19.934Z,11.58
2022-11-11T14:38:21.984Z,11.52
2022-11-11T14:40:48.596Z,11.59
2022-11-11T14:43:41.105Z,11.31
2022-11-11T14:46:17.763Z,11.17
2022-11-11T14:48:56.712Z,11.16
2022-11-11T14:51:55.082Z,11.23
2022-11-11T14:54:29.300Z,10.98
2022-11-11T14:57:03.513Z,10.99
2022-11-11T14:59:31.982Z,10.86
2022-11-11T15:01:59.617Z,10.64
2022-11-11T15:04:27.464Z,10.40
2022-11-11T15:06:57.453Z,10.29
2022-11-11T15:09:38.867Z,10.35
2022-11-11T15:12:20.241Z,10.32
2022-11-11T15:15:19.050Z,10.48
2022-11-11T15:18:05.342Z,10.26
2022-11-11T15:20:59.626Z,10.30
2022-11-11T15:24:12.818Z,10.26
2022-11-11T15:26:48.129Z,10.03
2022-11-11T15:29:43.702Z,9.90
2022-11-11T15:32:26.061Z,10.03
2022-11-11T15:35:09.368Z,9.89
2022-11-11T15:37:37.040Z,9.79
2022-11-11T15:40:04.715Z,9.81
2022-11-11T15:42:39.418Z,9.69
2022-11-11T15:45:20.941Z,9.76
2022-11-11T15:47:49.596Z,9.61
2022-11-11T15:50:30.971Z,9.66
2022-11-11T15:53:04.552Z,9.49
2022-11-11T15:55:37.214Z,9.58
2022-11-11T15:58:10.572Z,9.52
2022-11-11T16:00:38.214Z,9.29
2022-11-11T16:03:05.775Z,9.21
2022-11-11T16:05:32.939Z,9.41
2022-11-11T16:08:11.105Z,9.39
2022-11-11T16:10:41.374Z,9.29
2022-11-11T16:13:29.636Z,9.33
2022-11-11T16:16:09.256Z,9.31
2022-11-11T16:18:44.700Z,9.20
2022-11-11T16:21:11.636Z,9.18
2022-11-11T16:23:39.859Z,9.12
2022-11-11T16:26:08.085Z,9.12
2022-11-11T16:28:46.863Z,9.13
2022-11-11T16:31:39.631Z,9.11
2022-11-11T16:34:28.933Z,9.06
2022-11-11T16:37:07.764Z,9.01
2022-11-11T16:39:36.737Z,8.99
2022-11-11T16:42:22.986Z,8.76
2022-11-11T16:45:01.276Z,8.48
2022-11-11T16:47:33.798Z,8.54
2022-11-11T16:50:32.879Z,8.60
2022-11-11T16:53:04.928Z,8.69
2022-11-11T16:55:43.686Z,8.75
2022-11-11T16:58:22.059Z,8.80
2022-11-11T17:00:49.404Z,8.75
2022-11-11T17:03:17.040Z,8.71
2022-11-11T17:05:52.724Z,8.66
2022-11-11T17:08:31.559Z,8.62
2022-11-11T17:10:59.131Z,8.29
2022-11-11T17:13:27.603Z,8.28
2022-11-11T17:15:55.699Z,8.45
2022-11-11T17:18:22.598Z,8.22
2022-11-11T17:20:50.575Z,7.99
2022-11-11T17:23:17.122Z,8.24
2022-11-11T17:25:44.889Z,8.30
2022-11-11T17:28:11.518Z,8.31
2022-11-11T17:30:38.007Z,8.20
2022-11-11T17:33:05.200Z,8.05
2022-11-11T17:35:31.785Z,8.05
2022-11-11T17:37:58.260Z,7.93
2022-11-11T17:40:24.768Z,8.06
2022-11-11T17:42:51.311Z,8.13
2022-11-11T17:45:17.796Z,8.02
2022-11-11T17:47:44.359Z,8.02
2022-11-11T17:50:10.965Z,7.88
2022-11-11T17:52:37.797Z,7.79
2022-11-11T17:55:04.597Z,7.86
2022-11-11T17:57:32.070Z,7.78
2022-11-11T17:59:58.582Z,7.74
2022-11-11T18:02:25.092Z,7.53
2022-11-11T18:04:51.658Z,7.48
2022-11-11T18:07:18.242Z,7.67
2022-11-11T18:09:44.765Z,7.70
2022-11-11T18:12:11.282Z,7.49
2022-11-11T18:14:37.767Z,7.13
2022-11-11T18:17:04.245Z,7.11
2022-11-11T18:19:30.726Z,7.24
2022-11-11T18:21:57.240Z,7.30
2022-11-11T18:24:23.687Z,6.90
2022-11-11T18:26:50.213Z,6.71
2022-11-11T18:29:16.708Z,6.89
2022-11-11T18:31:43.240Z,6.92
2022-11-11T18:34:09.731Z,7.00
2022-11-11T18:36:36.217Z,6.96
2022-11-11T18:39:02.924Z,6.88
2022-11-11T18:41:29.540Z,6.88
2022-11-11T18:43:57.716Z,6.95
2022-11-11T18:46:27.078Z,7.00
2022-11-11T18:48:54.441Z,6.89
2022-11-11T18:51:21.162Z,6.68
2022-11-11T18:53:47.720Z,6.66
2022-11-11T18:56:17.457Z,6.59
2022-11-11T18:58:58.801Z,6.59
2022-11-11T19:01:28.653Z,6.69
2022-11-11T19:04:04.382Z,6.69
2022-11-11T19:06:33.528Z,6.61
2022-11-11T19:09:02.850Z,6.68
2022-11-11T19:11:30.839Z,6.75
2022-11-11T19:13:57.360Z,6.73
2022-11-11T19:16:24.933Z,6.65
2022-11-11T19:18:52.901Z,6.71
2022-11-11T19:21:24.803Z,6.68
2022-11-11T19:23:53.635Z,6.70
2022-11-11T19:26:21.607Z,6.65
2022-11-11T19:28:48.221Z,6.75
2022-11-11T19:31:23.797Z,6.65
2022-11-11T19:33:54.266Z,6.62
2022-11-11T19:36:28.074Z,6.64
2022-11-11T19:38:57.236Z,6.66
2022-11-11T19:41:26.315Z,6.68
2022-11-11T19:43:59.010Z,6.77
2022-11-11T19:46:27.957Z,6.70
2022-11-11T19:48:56.220Z,6.78
2022-11-11T19:51:25.457Z,6.83
2022-11-11T19:53:56.321Z,6.56
2022-11-11T19:56:24.808Z,6.62
2022-11-11T19:58:51.391Z,6.79
2022-11-11T20:01:21.285Z,6.72
2022-11-11T20:03:49.196Z,6.48
2022-11-11T20:06:25.986Z,6.58
2022-11-11T20:08:53.975Z,6.29
2022-11-11T20:11:21.365Z,6.24
2022-11-11T20:13:49.106Z,6.18
2022-11-11T20:16:16.649Z,6.39
2022-11-11T20:18:43.217Z,6.40
2022-11-11T20:21:12.816Z,6.49
2022-11-11T20:23:41.044Z,6.34
2022-11-11T20:26:13.587Z,6.25
2022-11-11T20:28:40.961Z,6.56
2022-11-11T20:31:16.237Z,6.44
2022-11-11T20:33:43.618Z,6.54
2022-11-11T20:36:12.701Z,6.30
2022-11-11T20:38:41.104Z,6.35
2022-11-11T20:41:15.676Z,6.28
2022-11-11T20:43:42.218Z,6.55
2022-11-11T20:46:11.729Z,6.45
2022-11-11T20:48:41.087Z,6.59
2022-11-11T20:51:08.847Z,6.60
2022-11-11T20:53:35.640Z,6.54
2022-11-11T20:56:02.151Z,6.41
2022-11-11T20:58:29.344Z,6.52
2022-11-11T21:01:03.459Z,6.49
2022-11-11T21:03:33.293Z,6.55
2022-11-11T21:06:08.746Z,6.55
2022-11-11T21:08:36.574Z,6.47
2022-11-11T21:11:04.388Z,6.55
2022-11-11T21:13:31.630Z,6.48
2022-11-11T21:16:14.165Z,6.25
2022-11-11T21:18:44.005Z,6.46
2022-11-11T21:21:16.020Z,6.45
2022-11-11T21:23:43.283Z,6.35
2022-11-11T21:26:11.909Z,6.42
2022-11-11T21:28:39.784Z,6.42
2022-11-11T21:31:21.458Z,6.47
2022-11-11T21:33:55.482Z,6.45
2022-11-11T21:36:23.631Z,6.44
2022-11-11T21:38:50.774Z,6.44
2022-11-11T21:41:20.227Z,6.40
2022-11-11T21:43:47.162Z,6.37
2022-11-11T21:46:19.121Z,6.10
2022-11-11T21:48:46.180Z,6.18
2022-11-11T21:51:19.959Z,6.23
2022-11-11T21:53:51.014Z,5.96
2022-11-11T21:56:17.680Z,6.14
2022-11-11T21:58:45.038Z,6.18
2022-11-11T22:01:19.041Z,6.24
2022-11-11T22:03:51.037Z,6.24
2022-11-11T22:06:18.394Z,6.18
2022-11-11T22:08:47.655Z,6.18
2022-11-11T22:11:22.242Z,6.21
2022-11-11T22:13:49.060Z,6.06
2022-11-11T22:16:18.392Z,6.13
2022-11-11T22:18:45.306Z,6.00
2022-11-11T22:21:20.347Z,5.78
2022-11-11T22:23:51.997Z,5.81
2022-11-11T22:26:19.329Z,5.88
2022-11-11T22:28:51.164Z,5.88
2022-11-11T22:31:22.109Z,5.91
2022-11-11T22:33:55.008Z,5.93
2022-11-11T22:36:21.530Z,5.88
2022-11-11T22:38:48.208Z,5.94
2022-11-11T22:41:20.428Z,5.91
2022-11-11T22:44:03.990Z,5.90
2022-11-11T22:46:31.651Z,5.82
2022-11-11T22:49:04.245Z,5.75
2022-11-11T22:51:32.455Z,5.81
2022-11-11T22:54:04.778Z,5.77
2022-11-11T22:56:33.434Z,5.75
2022-11-11T22:59:00.307Z,5.43
2022-11-11T23:01:30.813Z,5.36
2022-11-11T23:04:01.485Z,5.16
2022-11-11T23:06:31.528Z,5.12
2022-11-11T23:08:59.528Z,5.03
2022-11-11T23:11:29.040Z,5.31
2022-11-11T23:14:03.891Z,5.44
2022-11-11T23:16:30.956Z,5.51
2022-11-11T23:18:58.771Z,5.20
2022-11-11T23:21:27.438Z,5.33
2022-11-11T23:23:54.260Z,5.37
2022-11-11T23:26:24.323Z,5.33
2022-11-11T23:28:51.582Z,5.23
2022-11-11T23:31:23.965Z,5.40
2022-11-11T23:33:53.834Z,5.20
2022-11-11T23:36:23.477Z,5.32
2022-11-11T23:38:50.521Z,5.39
2022-11-11T23:41:17.591Z,5.38
2022-11-11T23:43:44.115Z,5.19
2022-11-11T23:46:11.155Z,5.30
2022-11-11T23:48:37.737Z,5.31
2022-11-11T23:51:04.283Z,5.30
2022-11-11T23:53:30.877Z,5.02
2022-11-11T23:55:57.616Z,5.14
2022-11-11T23:58:25.344Z,5.12
